sensor_id;sensor_type;location;lat;lon;timestamp;pressure;altitude;pressure_sealevel;temperature;humidity
42247;BME280;27913;42.722;23.268;2022-08-01T00:03:39;94737.19;;;19.13;56.42
42247;BME280;27913;42.722;23.268;2022-08-01T00:06:05;94747.53;;;19.09;56.75
42247;BME280;27913;42.722;23.268;2022-08-01T00:08:30;94808.72;;;19.43;56.94
42247;BME280;27913;42.722;23.268;2022-08-01T00:10:56;94654.34;;;18.52;55.91
42247;BME280;27913;42.722;23.268;2022-08-01T00:13:21;94777.63;;;19.27;56.28
42247;BME280;27913;42.722;23.268;2022-08-01T00:15:47;94792.16;;;19.19;59.25
42247;BME280;27913;42.722;23.268;2022-08-01T00:18:12;94739.91;;;18.78;60.32
42247;BME280;27913;42.722;23.268;2022-08-01T00:20:38;94784.63;;;18.93;61.82
42247;BME280;27913;42.722;23.268;2022-08-01T00:23:03;94783.09;;;18.80;61.71
42247;BME280;27913;42.722;23.268;2022-08-01T00:25:30;94700.59;;;18.11;62.37
42247;BME280;27913;42.722;23.268;2022-08-01T00:27:56;94741.19;;;18.19;62.62
42247;BME280;27913;42.722;23.268;2022-08-01T00:30:21;94799.44;;;18.32;63.82
42247;BME280;27913;42.722;23.268;2022-08-01T00:32:47;94825.75;;;18.17;64.08
42247;BME280;27913;42.722;23.268;2022-08-01T00:35:13;94736.41;;;17.16;65.76
42247;BME280;27913;42.722;23.268;2022-08-01T00:37:38;94718.31;;;16.77;66.84
42247;BME280;27913;42.722;23.268;2022-08-01T00:40:05;94842.88;;;17.38;67.88
42247;BME280;27913;42.722;23.268;2022-08-01T00:42:31;94796.91;;;17.26;67.32
42247;BME280;27913;42.722;23.268;2022-08-01T00:44:56;94753.84;;;17.12;67.31
42247;BME280;27913;42.722;23.268;2022-08-01T00:47:22;94663.19;;;16.67;66.79
42247;BME280;27913;42.722;23.268;2022-08-01T00:49:47;94688.41;;;16.82;66.12
42247;BME280;27913;42.722;23.268;2022-08-01T00:52:13;94802.59;;;17.71;65.42
42247;BME280;27913;42.722;23.268;2022-08-01T00:54:39;94771.28;;;17.61;64.93
42247;BME280;27913;42.722;23.268;2022-08-01T00:57:05;94825.25;;;18.03;64.80
42247;BME280;27913;42.722;23.268;2022-08-01T00:59:30;94705.84;;;17.31;64.19
42247;BME280;27913;42.722;23.268;2022-08-01T01:01:56;94746.88;;;17.64;63.96
42247;BME280;27913;42.722;23.268;2022-08-01T01:04:22;94672.75;;;17.21;63.67
42247;BME280;27913;42.722;23.268;2022-08-01T01:07:07;94749.41;;;17.71;63.69
42247;BME280;27913;42.722;23.268;2022-08-01T01:12:41;94655.41;;;17.19;63.17
42247;BME280;27913;42.722;23.268;2022-08-01T01:15:15;94708.59;;;17.48;63.00
42247;BME280;27913;42.722;23.268;2022-08-01T01:17:48;94719.50;;;17.63;62.56
42247;BME280;27913;42.722;23.268;2022-08-01T01:20:16;94781.38;;;18.05;61.87
42247;BME280;27913;42.722;23.268;2022-08-01T01:23:10;94663.22;;;17.37;62.17
42247;BME280;27913;42.722;23.268;2022-08-01T01:25:45;94758.31;;;17.94;61.27
42247;BME280;27913;42.722;23.268;2022-08-01T01:28:40;94812.00;;;18.37;61.46
42247;BME280;27913;42.722;23.268;2022-08-01T01:31:08;94875.13;;;18.71;61.93
42247;BME280;27913;42.722;23.268;2022-08-01T01:33:36;94779.50;;;18.18;61.67
42247;BME280;27913;42.722;23.268;2022-08-01T01:36:05;94888.44;;;19.05;61.70
42247;BME280;27913;42.722;23.268;2022-08-01T01:38:36;94891.16;;;19.11;61.13
42247;BME280;27913;42.722;23.268;2022-08-01T01:41:03;94726.41;;;18.11;60.39
42247;BME280;27913;42.722;23.268;2022-08-01T01:43:32;94886.50;;;19.18;59.97
42247;BME280;27913;42.722;23.268;2022-08-01T01:45:59;94826.59;;;18.86;59.80
42247;BME280;27913;42.722;23.268;2022-08-01T01:48:26;94731.19;;;18.26;59.00
42247;BME280;27913;42.722;23.268;2022-08-01T01:50:53;94858.88;;;19.07;57.95
42247;BME280;27913;42.722;23.268;2022-08-01T01:53:21;94881.63;;;19.32;58.20
42247;BME280;27913;42.722;23.268;2022-08-01T01:55:52;94642.72;;;17.84;57.97
42247;BME280;27913;42.722;23.268;2022-08-01T01:58:19;94881.63;;;19.32;58.44
42247;BME280;27913;42.722;23.268;2022-08-01T02:00:47;94831.66;;;19.05;58.71
42247;BME280;27913;42.722;23.268;2022-08-01T02:03:13;94884.06;;;19.34;60.75
42247;BME280;27913;42.722;23.268;2022-08-01T02:05:42;94776.59;;;18.71;60.81
42247;BME280;27913;42.722;23.268;2022-08-01T02:08:10;94866.78;;;19.36;61.19
42247;BME280;27913;42.722;23.268;2022-08-01T02:10:37;94878.97;;;19.32;61.79
42247;BME280;27913;42.722;23.268;2022-08-01T02:13:05;94869.91;;;19.33;60.30
42247;BME280;27913;42.722;23.268;2022-08-01T02:15:33;94731.25;;;18.49;59.76
42247;BME280;27913;42.722;23.268;2022-08-01T02:18:01;94878.59;;;19.23;61.58
42247;BME280;27913;42.722;23.268;2022-08-01T02:20:29;94852.34;;;18.98;62.77
42247;BME280;27913;42.722;23.268;2022-08-01T02:23:10;94876.72;;;19.06;62.78
42247;BME280;27913;42.722;23.268;2022-08-01T02:25:45;94821.75;;;18.49;63.35
42247;BME280;27913;42.722;23.268;2022-08-01T02:28:16;94702.16;;;17.61;62.87
42247;BME280;27913;42.722;23.268;2022-08-01T02:30:46;94784.19;;;17.98;63.98
42247;BME280;27913;42.722;23.268;2022-08-01T02:33:17;94737.00;;;17.47;63.21
42247;BME280;27913;42.722;23.268;2022-08-01T02:35:54;94878.06;;;18.11;64.06
42247;BME280;27913;42.722;23.268;2022-08-01T02:38:23;94830.19;;;17.70;64.98
42247;BME280;27913;42.722;23.268;2022-08-01T02:40:52;94891.53;;;17.92;65.30
42247;BME280;27913;42.722;23.268;2022-08-01T02:43:21;94873.84;;;17.45;66.16
42247;BME280;27913;42.722;23.268;2022-08-01T02:45:51;94789.66;;;16.49;67.22
42247;BME280;27913;42.722;23.268;2022-08-01T02:48:18;94886.19;;;16.91;68.10
42247;BME280;27913;42.722;23.268;2022-08-01T02:50:48;94887.59;;;16.94;68.45
42247;BME280;27913;42.722;23.268;2022-08-01T02:53:14;94870.84;;;17.05;67.88
42247;BME280;27913;42.722;23.268;2022-08-01T02:55:43;94872.50;;;17.18;67.69
42247;BME280;27913;42.722;23.268;2022-08-01T02:58:12;94612.41;;;15.67;66.82
42247;BME280;27913;42.722;23.268;2022-08-01T03:00:39;94883.19;;;17.47;66.27
42247;BME280;27913;42.722;23.268;2022-08-01T03:03:07;94881.00;;;17.56;65.90
42247;BME280;27913;42.722;23.268;2022-08-01T03:05:34;94848.22;;;17.26;65.79
42247;BME280;27913;42.722;23.268;2022-08-01T03:08:01;94645.63;;;15.82;66.14
42247;BME280;27913;42.722;23.268;2022-08-01T03:10:29;94867.72;;;16.96;66.90
42247;BME280;27913;42.722;23.268;2022-08-01T03:12:55;94769.56;;;16.41;67.19
42247;BME280;27913;42.722;23.268;2022-08-01T03:15:24;94832.38;;;16.72;67.75
42247;BME280;27913;42.722;23.268;2022-08-01T03:17:52;94832.97;;;16.62;67.92
42247;BME280;27913;42.722;23.268;2022-08-01T03:20:21;94886.91;;;16.86;68.66
42247;BME280;27913;42.722;23.268;2022-08-01T03:22:50;94826.09;;;16.30;69.39
42247;BME280;27913;42.722;23.268;2022-08-01T03:25:18;94892.06;;;16.69;69.66
42247;BME280;27913;42.722;23.268;2022-08-01T03:27:54;94892.41;;;16.73;69.99
42247;BME280;27913;42.722;23.268;2022-08-01T03:30:23;94884.81;;;16.88;69.36
42247;BME280;27913;42.722;23.268;2022-08-01T03:32:51;94877.63;;;17.01;68.37
42247;BME280;27913;42.722;23.268;2022-08-01T03:35:17;94875.03;;;17.13;67.47
42247;BME280;27913;42.722;23.268;2022-08-01T03:37:45;94819.09;;;16.84;66.61
42247;BME280;27913;42.722;23.268;2022-08-01T03:40:21;94770.84;;;16.75;65.71
42247;BME280;27913;42.722;23.268;2022-08-01T03:42:50;94806.88;;;16.95;66.73
42247;BME280;27913;42.722;23.268;2022-08-01T03:45:31;94595.38;;;15.75;65.56
42247;BME280;27913;42.722;23.268;2022-08-01T03:48:01;94883.75;;;17.61;66.31
42247;BME280;27913;42.722;23.268;2022-08-01T03:50:30;94871.97;;;17.69;65.99
42247;BME280;27913;42.722;23.268;2022-08-01T03:53:00;94881.31;;;17.72;63.43
42247;BME280;27913;42.722;23.268;2022-08-01T03:55:27;94626.19;;;16.12;64.11
42247;BME280;27913;42.722;23.268;2022-08-01T03:57:53;94882.25;;;17.66;65.43
42247;BME280;27913;42.722;23.268;2022-08-01T04:00:19;94882.06;;;17.55;66.27
42247;BME280;27913;42.722;23.268;2022-08-01T04:02:47;94881.50;;;17.41;67.04
42247;BME280;27913;42.722;23.268;2022-08-01T04:05:13;94824.88;;;16.93;67.55
42247;BME280;27913;42.722;23.268;2022-08-01T04:07:39;94894.41;;;17.25;68.51
42247;BME280;27913;42.722;23.268;2022-08-01T04:10:06;94858.59;;;16.80;68.79
42247;BME280;27913;42.722;23.268;2022-08-01T04:12:31;94627.53;;;15.24;69.27
42247;BME280;27913;42.722;23.268;2022-08-01T04:14:58;94891.63;;;16.84;69.50
42247;BME280;27913;42.722;23.268;2022-08-01T04:17:23;94896.91;;;16.72;70.32
42247;BME280;27913;42.722;23.268;2022-08-01T04:19:50;94903.59;;;16.63;71.08
42247;BME280;27913;42.722;23.268;2022-08-01T04:22:15;94790.69;;;15.93;71.56
42247;BME280;27913;42.722;23.268;2022-08-01T04:24:44;94646.41;;;15.16;71.62
42247;BME280;27913;42.722;23.268;2022-08-01T04:27:18;94834.44;;;16.46;71.29
42247;BME280;27913;42.722;23.268;2022-08-01T04:29:46;94904.66;;;16.98;70.84
42247;BME280;27913;42.722;23.268;2022-08-01T04:32:14;94841.81;;;16.44;71.14
42247;BME280;27913;42.722;23.268;2022-08-01T04:34:41;94784.97;;;16.09;71.52
42247;BME280;27913;42.722;23.268;2022-08-01T04:37:11;94887.91;;;16.73;71.72
42247;BME280;27913;42.722;23.268;2022-08-01T04:39:39;94832.41;;;16.17;71.71
42247;BME280;27913;42.722;23.268;2022-08-01T04:42:07;94805.38;;;16.08;71.50
42247;BME280;27913;42.722;23.268;2022-08-01T04:44:32;94915.00;;;16.51;71.82
42247;BME280;27913;42.722;23.268;2022-08-01T04:47:00;94908.16;;;16.44;72.24
42247;BME280;27913;42.722;23.268;2022-08-01T04:49:30;94857.41;;;16.09;72.50
42247;BME280;27913;42.722;23.268;2022-08-01T04:51:56;94876.56;;;16.54;71.40
42247;BME280;27913;42.722;23.268;2022-08-01T04:54:29;94834.66;;;16.44;72.99
42247;BME280;27913;42.722;23.268;2022-08-01T04:56:56;94749.91;;;16.06;73.12
42247;BME280;27913;42.722;23.268;2022-08-01T04:59:28;94905.53;;;17.10;71.70
42247;BME280;27913;42.722;23.268;2022-08-01T05:02:14;94912.41;;;16.99;72.02
42247;BME280;27913;42.722;23.268;2022-08-01T05:04:40;94849.13;;;16.60;73.91
42247;BME280;27913;42.722;23.268;2022-08-01T05:07:07;94895.34;;;16.95;73.33
42247;BME280;27913;42.722;23.268;2022-08-01T05:09:33;94891.63;;;16.96;73.58
42247;BME280;27913;42.722;23.268;2022-08-01T05:11:59;94890.94;;;17.01;74.48
42247;BME280;27913;42.722;23.268;2022-08-01T05:14:27;94887.50;;;17.12;74.34
42247;BME280;27913;42.722;23.268;2022-08-01T05:16:53;94837.03;;;16.88;73.23
42247;BME280;27913;42.722;23.268;2022-08-01T05:19:19;94842.34;;;16.88;72.17
42247;BME280;27913;42.722;23.268;2022-08-01T05:21:45;94848.66;;;16.87;72.77
42247;BME280;27913;42.722;23.268;2022-08-01T05:24:10;94720.88;;;16.12;73.51
42247;BME280;27913;42.722;23.268;2022-08-01T05:26:36;94750.66;;;16.38;72.55
42247;BME280;27913;42.722;23.268;2022-08-01T05:29:02;94891.88;;;17.43;73.46
42247;BME280;27913;42.722;23.268;2022-08-01T05:31:28;94823.63;;;17.19;74.36
42247;BME280;27913;42.722;23.268;2022-08-01T05:33:53;94792.31;;;17.21;70.55
42247;BME280;27913;42.722;23.268;2022-08-01T05:36:19;94648.09;;;16.44;71.50
42247;BME280;27913;42.722;23.268;2022-08-01T05:38:44;94878.44;;;18.03;69.66
42247;BME280;27913;42.722;23.268;2022-08-01T05:41:10;94802.50;;;17.54;69.48
42247;BME280;27913;42.722;23.268;2022-08-01T05:43:36;94894.25;;;18.21;69.62
42247;BME280;27913;42.722;23.268;2022-08-01T05:46:01;94892.59;;;18.32;69.81
42247;BME280;27913;42.722;23.268;2022-08-01T05:48:27;94904.44;;;18.42;70.11
42247;BME280;27913;42.722;23.268;2022-08-01T05:50:53;94903.25;;;18.50;67.03
42247;BME280;27913;42.722;23.268;2022-08-01T05:53:19;94803.72;;;18.04;70.52
42247;BME280;27913;42.722;23.268;2022-08-01T05:55:44;94891.81;;;18.66;72.11
42247;BME280;27913;42.722;23.268;2022-08-01T05:58:10;94902.88;;;18.75;67.31
42247;BME280;27913;42.722;23.268;2022-08-01T06:00:35;94893.69;;;18.83;65.48
42247;BME280;27913;42.722;23.268;2022-08-01T06:03:01;94889.09;;;18.95;64.47
42247;BME280;27913;42.722;23.268;2022-08-01T06:05:26;94891.91;;;19.06;62.97
42247;BME280;27913;42.722;23.268;2022-08-01T06:07:51;94776.09;;;18.40;59.87
42247;BME280;27913;42.722;23.268;2022-08-01T06:10:17;94894.56;;;19.23;59.42
42247;BME280;27913;42.722;23.268;2022-08-01T06:12:43;94841.84;;;18.91;56.41
42247;BME280;27913;42.722;23.268;2022-08-01T06:15:09;94902.22;;;19.37;56.14
42247;BME280;27913;42.722;23.268;2022-08-01T06:17:34;94629.91;;;17.81;55.22
42247;BME280;27913;42.722;23.268;2022-08-01T06:20:02;94850.63;;;19.08;55.55
42247;BME280;27913;42.722;23.268;2022-08-01T06:22:28;94897.28;;;19.46;55.03
42247;BME280;27913;42.722;23.268;2022-08-01T06:24:53;94888.63;;;19.55;55.24
42247;BME280;27913;42.722;23.268;2022-08-01T06:27:19;94901.53;;;19.64;56.20
42247;BME280;27913;42.722;23.268;2022-08-01T06:29:44;94890.41;;;19.72;55.47
42247;BME280;27913;42.722;23.268;2022-08-01T06:32:10;94888.38;;;19.79;56.16
42247;BME280;27913;42.722;23.268;2022-08-01T06:34:35;94737.22;;;18.95;56.14
42247;BME280;27913;42.722;23.268;2022-08-01T06:37:01;94891.16;;;19.90;54.15
42247;BME280;27913;42.722;23.268;2022-08-01T06:39:27;94878.94;;;19.94;56.34
42247;BME280;27913;42.722;23.268;2022-08-01T06:41:52;94884.66;;;20.03;52.31
42247;BME280;27913;42.722;23.268;2022-08-01T06:44:18;94625.50;;;18.44;52.98
42247;BME280;27913;42.722;23.268;2022-08-01T06:46:43;94879.63;;;20.07;53.72
42247;BME280;27913;42.722;23.268;2022-08-01T06:49:11;94775.00;;;19.54;55.27
42247;BME280;27913;42.722;23.268;2022-08-01T06:51:36;94624.16;;;18.64;52.70
42247;BME280;27913;42.722;23.268;2022-08-01T06:54:02;94866.38;;;20.17;52.24
42247;BME280;27913;42.722;23.268;2022-08-01T06:56:29;94706.31;;;19.17;52.96
42247;BME280;27913;42.722;23.268;2022-08-01T06:58:55;94866.78;;;20.31;52.55
42247;BME280;27913;42.722;23.268;2022-08-01T07:01:29;94634.63;;;18.93;53.68
42247;BME280;27913;42.722;23.268;2022-08-01T07:03:54;94803.41;;;20.16;52.72
42247;BME280;27913;42.722;23.268;2022-08-01T07:06:24;94843.72;;;20.47;51.24
42247;BME280;27913;42.722;23.268;2022-08-01T07:08:50;94641.56;;;19.16;50.32
42247;BME280;27913;42.722;23.268;2022-08-01T07:11:16;94867.78;;;20.52;51.16
42247;BME280;27913;42.722;23.268;2022-08-01T07:13:42;94858.47;;;20.55;49.81
42247;BME280;27913;42.722;23.268;2022-08-01T07:16:07;94866.75;;;20.54;49.73
42247;BME280;27913;42.722;23.268;2022-08-01T07:18:33;94861.25;;;20.66;50.06
42247;BME280;27913;42.722;23.268;2022-08-01T07:20:58;94866.63;;;20.71;49.87
42247;BME280;27913;42.722;23.268;2022-08-01T07:23:24;94870.09;;;20.71;49.43
42247;BME280;27913;42.722;23.268;2022-08-01T07:25:49;94872.78;;;20.71;49.27
42247;BME280;27913;42.722;23.268;2022-08-01T07:28:17;94778.25;;;20.12;48.67
42247;BME280;27913;42.722;23.268;2022-08-01T07:30:43;94787.44;;;20.21;49.22
42247;BME280;27913;42.722;23.268;2022-08-01T07:33:09;94865.88;;;20.81;49.53
42247;BME280;27913;42.722;23.268;2022-08-01T07:35:35;94780.88;;;20.34;49.74
42247;BME280;27913;42.722;23.268;2022-08-01T07:38:04;94847.47;;;20.84;48.72
42247;BME280;27913;42.722;23.268;2022-08-01T07:40:29;94837.31;;;20.81;49.64
42247;BME280;27913;42.722;23.268;2022-08-01T07:42:55;94866.31;;;21.00;49.24
42247;BME280;27913;42.722;23.268;2022-08-01T07:45:21;94807.59;;;20.72;50.27
42247;BME280;27913;42.722;23.268;2022-08-01T07:47:47;94646.19;;;19.82;48.98
42247;BME280;27913;42.722;23.268;2022-08-01T07:50:15;94854.72;;;21.22;49.35
42247;BME280;27913;42.722;23.268;2022-08-01T07:52:40;94872.66;;;21.27;48.63
42247;BME280;27913;42.722;23.268;2022-08-01T07:55:07;94868.09;;;21.22;49.22
42247;BME280;27913;42.722;23.268;2022-08-01T07:57:35;94874.75;;;21.24;48.81
42247;BME280;27913;42.722;23.268;2022-08-01T08:00:01;94760.25;;;20.62;48.95
42247;BME280;27913;42.722;23.268;2022-08-01T08:02:26;94875.31;;;21.27;48.27
42247;BME280;27913;42.722;23.268;2022-08-01T08:04:52;94756.25;;;20.65;48.83
42247;BME280;27913;42.722;23.268;2022-08-01T08:07:17;94870.59;;;21.44;47.67
42247;BME280;27913;42.722;23.268;2022-08-01T08:09:43;94875.69;;;21.46;47.62
42247;BME280;27913;42.722;23.268;2022-08-01T08:12:08;94819.91;;;21.11;47.02
42247;BME280;27913;42.722;23.268;2022-08-01T08:14:34;94821.53;;;21.18;47.17
42247;BME280;27913;42.722;23.268;2022-08-01T08:17:00;94716.16;;;20.60;46.89
42247;BME280;27913;42.722;23.268;2022-08-01T08:19:25;94802.56;;;21.19;46.91
42247;BME280;27913;42.722;23.268;2022-08-01T08:21:51;94592.94;;;19.97;46.66
42247;BME280;27913;42.722;23.268;2022-08-01T08:24:17;94866.19;;;21.71;45.91
42247;BME280;27913;42.722;23.268;2022-08-01T08:26:49;94857.09;;;21.72;45.99
42247;BME280;27913;42.722;23.268;2022-08-01T08:29:15;94862.16;;;21.73;45.74
42247;BME280;27913;42.722;23.268;2022-08-01T08:31:41;94716.84;;;20.88;44.82
42247;BME280;27913;42.722;23.268;2022-08-01T08:34:06;94799.72;;;21.36;44.43
42247;BME280;27913;42.722;23.268;2022-08-01T08:36:32;94858.25;;;21.87;45.33
42247;BME280;27913;42.722;23.268;2022-08-01T08:38:58;94859.88;;;21.93;44.92
42247;BME280;27913;42.722;23.268;2022-08-01T08:41:28;94867.38;;;21.96;43.80
42247;BME280;27913;42.722;23.268;2022-08-01T08:43:54;94852.66;;;21.93;44.00
42247;BME280;27913;42.722;23.268;2022-08-01T08:46:22;94755.56;;;21.29;43.92
42247;BME280;27913;42.722;23.268;2022-08-01T08:48:48;94852.38;;;22.00;44.11
42247;BME280;27913;42.722;23.268;2022-08-01T08:51:17;94821.03;;;21.80;44.09
42247;BME280;27913;42.722;23.268;2022-08-01T08:53:46;94860.16;;;22.07;42.40
42247;BME280;27913;42.722;23.268;2022-08-01T08:56:12;94763.91;;;21.48;42.83
42247;BME280;27913;42.722;23.268;2022-08-01T08:58:41;94854.03;;;22.12;43.73
42247;BME280;27913;42.722;23.268;2022-08-01T09:01:08;94852.72;;;22.19;43.77
42247;BME280;27913;42.722;23.268;2022-08-01T09:03:35;94851.13;;;22.24;42.23
42247;BME280;27913;42.722;23.268;2022-08-01T09:06:02;94645.56;;;20.94;42.48
42247;BME280;27913;42.722;23.268;2022-08-01T09:08:28;94806.91;;;22.05;42.25
42247;BME280;27913;42.722;23.268;2022-08-01T09:10:53;94832.38;;;22.24;42.03
42247;BME280;27913;42.722;23.268;2022-08-01T09:13:19;94733.41;;;21.49;42.50
42247;BME280;27913;42.722;23.268;2022-08-01T09:15:50;94852.44;;;22.31;40.27
42247;BME280;27913;42.722;23.268;2022-08-01T09:18:28;94798.34;;;22.03;39.70
42247;BME280;27913;42.722;23.268;2022-08-01T09:23:41;94818.44;;;22.27;41.05
42247;BME280;27913;42.722;23.268;2022-08-01T09:26:10;94822.75;;;22.28;40.29
42247;BME280;27913;42.722;23.268;2022-08-01T09:28:37;94835.06;;;22.34;40.34
42247;BME280;27913;42.722;23.268;2022-08-01T09:31:11;94776.41;;;22.06;40.79
42247;BME280;27913;42.722;23.268;2022-08-01T09:34:06;94816.31;;;22.44;40.39
42247;BME280;27913;42.722;23.268;2022-08-01T09:36:53;94765.16;;;22.10;41.43
42247;BME280;27913;42.722;23.268;2022-08-01T09:39:23;94819.56;;;22.67;39.57
42247;BME280;27913;42.722;23.268;2022-08-01T09:41:48;94837.50;;;22.77;39.16
42247;BME280;27913;42.722;23.268;2022-08-01T09:44:16;94822.50;;;22.87;40.43
42247;BME280;27913;42.722;23.268;2022-08-01T09:46:54;94738.66;;;22.34;40.17
42247;BME280;27913;42.722;23.268;2022-08-01T09:49:28;94809.13;;;22.76;40.07
42247;BME280;27913;42.722;23.268;2022-08-01T09:51:59;94821.69;;;22.91;39.90
42247;BME280;27913;42.722;23.268;2022-08-01T09:54:33;94678.66;;;22.04;40.49
42247;BME280;27913;42.722;23.268;2022-08-01T09:57:15;94825.44;;;23.01;41.26
42247;BME280;27913;42.722;23.268;2022-08-01T09:59:43;94710.50;;;22.31;41.53
42247;BME280;27913;42.722;23.268;2022-08-01T10:02:10;94747.19;;;22.57;41.55
42247;BME280;27913;42.722;23.268;2022-08-01T10:04:49;94829.44;;;23.09;40.41
42247;BME280;27913;42.722;23.268;2022-08-01T10:07:15;94696.34;;;22.31;40.14
42247;BME280;27913;42.722;23.268;2022-08-01T10:09:41;94690.16;;;22.30;41.24
42247;BME280;27913;42.722;23.268;2022-08-01T10:12:09;94833.19;;;23.13;40.76
42247;BME280;27913;42.722;23.268;2022-08-01T10:14:36;94817.38;;;23.11;40.84
42247;BME280;27913;42.722;23.268;2022-08-01T10:17:01;94779.34;;;22.83;41.41
42247;BME280;27913;42.722;23.268;2022-08-01T10:19:29;94618.97;;;21.93;40.28
42247;BME280;27913;42.722;23.268;2022-08-01T10:21:56;94827.78;;;23.28;40.39
42247;BME280;27913;42.722;23.268;2022-08-01T10:24:23;94757.34;;;22.97;40.28
42247;BME280;27913;42.722;23.268;2022-08-01T10:26:55;94829.13;;;23.36;40.98
42247;BME280;27913;42.722;23.268;2022-08-01T10:29:24;94807.09;;;23.39;39.99
42247;BME280;27913;42.722;23.268;2022-08-01T10:31:51;94805.53;;;23.28;40.24
42247;BME280;27913;42.722;23.268;2022-08-01T10:34:17;94783.03;;;23.19;40.27
42247;BME280;27913;42.722;23.268;2022-08-01T10:36:45;94660.16;;;22.33;40.25
42247;BME280;27913;42.722;23.268;2022-08-01T10:39:11;94806.59;;;23.32;40.23
42247;BME280;27913;42.722;23.268;2022-08-01T10:41:41;94823.75;;;23.42;39.94
42247;BME280;27913;42.722;23.268;2022-08-01T10:44:08;94805.50;;;23.44;39.26
42247;BME280;27913;42.722;23.268;2022-08-01T10:46:38;94590.06;;;22.00;39.71
42247;BME280;27913;42.722;23.268;2022-08-01T10:49:10;94753.81;;;23.12;39.22
42247;BME280;27913;42.722;23.268;2022-08-01T10:51:41;94765.06;;;23.19;40.21
42247;BME280;27913;42.722;23.268;2022-08-01T10:54:08;94796.94;;;23.42;39.78
42247;BME280;27913;42.722;23.268;2022-08-01T10:56:49;94799.88;;;23.45;40.68
42247;BME280;27913;42.722;23.268;2022-08-01T10:59:25;94743.06;;;23.22;39.57
42247;BME280;27913;42.722;23.268;2022-08-01T11:02:02;94549.09;;;22.10;40.30
42247;BME280;27913;42.722;23.268;2022-08-01T11:04:42;94768.69;;;23.55;39.92
42247;BME280;27913;42.722;23.268;2022-08-01T11:07:22;94804.81;;;23.78;39.01
42247;BME280;27913;42.722;23.268;2022-08-01T11:10:02;94790.13;;;23.70;39.09
42247;BME280;27913;42.722;23.268;2022-08-01T11:12:38;94706.59;;;23.16;39.28
42247;BME280;27913;42.722;23.268;2022-08-01T11:30:47;94736.25;;;23.46;38.89
42247;BME280;27913;42.722;23.268;2022-08-01T11:33:14;94785.00;;;23.69;39.15
42247;BME280;27913;42.722;23.268;2022-08-01T11:38:39;94588.53;;;22.76;39.30
42247;BME280;27913;42.722;23.268;2022-08-01T11:41:12;94792.16;;;23.89;38.79
42247;BME280;27913;42.722;23.268;2022-08-01T11:44:14;94774.13;;;23.95;39.22
42247;BME280;27913;42.722;23.268;2022-08-01T11:46:53;94757.31;;;24.24;39.75
42247;BME280;27913;42.722;23.268;2022-08-01T11:52:01;94766.31;;;24.44;38.19
42247;BME280;27913;42.722;23.268;2022-08-01T11:54:28;94740.00;;;24.35;38.16
42247;BME280;27913;42.722;23.268;2022-08-01T11:56:59;94778.06;;;24.48;38.47
42247;BME280;27913;42.722;23.268;2022-08-01T11:59:26;94791.91;;;24.66;38.80
42247;BME280;27913;42.722;23.268;2022-08-01T12:01:52;94730.94;;;24.31;38.21
42247;BME280;27913;42.722;23.268;2022-08-01T12:04:18;94709.25;;;24.17;38.63
42247;BME280;27913;42.722;23.268;2022-08-01T12:06:43;94717.31;;;24.17;38.60
42247;BME280;27913;42.722;23.268;2022-08-01T12:09:21;94716.50;;;24.22;38.17
42247;BME280;27913;42.722;23.268;2022-08-01T12:11:48;94769.88;;;24.64;38.15
42247;BME280;27913;42.722;23.268;2022-08-01T12:14:20;94767.28;;;24.83;38.10
42247;BME280;27913;42.722;23.268;2022-08-01T12:16:53;94770.72;;;24.89;37.51
42247;BME280;27913;42.722;23.268;2022-08-01T12:19:23;94774.66;;;25.02;37.08
42247;BME280;27913;42.722;23.268;2022-08-01T12:22:08;94765.38;;;25.13;37.12
42247;BME280;27913;42.722;23.268;2022-08-01T12:24:35;94686.72;;;24.72;36.72
42247;BME280;27913;42.722;23.268;2022-08-01T12:27:01;94758.81;;;25.25;36.88
42247;BME280;27913;42.722;23.268;2022-08-01T12:31:58;94759.72;;;25.39;36.85
42247;BME280;27913;42.722;23.268;2022-08-01T12:34:25;94762.84;;;25.47;36.67
42247;BME280;27913;42.722;23.268;2022-08-01T12:36:51;94656.22;;;24.88;35.97
42247;BME280;27913;42.722;23.268;2022-08-01T12:39:17;94749.56;;;25.55;36.45
42247;BME280;27913;42.722;23.268;2022-08-01T12:41:43;94755.31;;;25.49;37.30
42247;BME280;27913;42.722;23.268;2022-08-01T12:44:15;94704.66;;;25.31;36.68
42247;BME280;27913;42.722;23.268;2022-08-01T12:46:41;94568.84;;;24.41;37.02
42247;BME280;27913;42.722;23.268;2022-08-01T12:49:07;94538.44;;;24.16;36.88
42247;BME280;27913;42.722;23.268;2022-08-01T12:51:33;94751.81;;;25.48;37.06
42247;BME280;27913;42.722;23.268;2022-08-01T12:53:59;94524.28;;;24.10;37.32
42247;BME280;27913;42.722;23.268;2022-08-01T12:56:32;94661.38;;;25.08;36.89
42247;BME280;27913;42.722;23.268;2022-08-01T12:58:58;94696.25;;;25.57;37.07
42247;BME280;27913;42.722;23.268;2022-08-01T13:01:28;94625.38;;;25.24;36.16
42247;BME280;27913;42.722;23.268;2022-08-01T13:04:00;94747.28;;;26.07;36.74
42247;BME280;27913;42.722;23.268;2022-08-01T13:06:28;94724.00;;;25.97;35.81
42247;BME280;27913;42.722;23.268;2022-08-01T13:08:54;94681.84;;;25.67;35.92
42247;BME280;27913;42.722;23.268;2022-08-01T13:11:20;94523.72;;;24.63;36.24
42247;BME280;27913;42.722;23.268;2022-08-01T13:13:47;94747.22;;;25.73;36.90
42247;BME280;27913;42.722;23.268;2022-08-01T13:16:17;94684.06;;;25.41;36.79
42247;BME280;27913;42.722;23.268;2022-08-01T13:18:48;94738.16;;;26.02;36.20
42247;BME280;27913;42.722;23.268;2022-08-01T13:21:17;94588.59;;;25.38;35.51
42247;BME280;27913;42.722;23.268;2022-08-01T13:24:12;94532.84;;;25.25;35.86
42247;BME280;27913;42.722;23.268;2022-08-01T13:26:39;94708.63;;;26.64;34.57
42247;BME280;27913;42.722;23.268;2022-08-01T13:29:05;94540.03;;;25.63;34.85